createdAt,value
2018-10-03T00:00:24.806Z,17.63
2018-10-03T00:02:53.658Z,23.47
2018-10-03T00:05:22.506Z,21.13
2018-10-03T00:07:51.445Z,23.00
2018-10-03T00:10:20.340Z,21.43
2018-10-03T00:12:49.185Z,26.10
2018-10-03T00:15:18.049Z,21.73
2018-10-03T00:17:46.887Z,18.37
2018-10-03T00:20:15.765Z,23.43
2018-10-03T00:22:44.598Z,21.90
2018-10-03T00:25:13.428Z,23.47
2018-10-03T00:27:42.311Z,26.63
2018-10-03T00:30:11.198Z,17.93
2018-10-03T00:32:40.079Z,20.53
2018-10-03T00:35:08.948Z,20.10
2018-10-03T00:37:37.832Z,17.50
2018-10-03T00:40:06.683Z,25.33
2018-10-03T00:42:35.518Z,26.60
2018-10-03T00:45:04.632Z,22.30
2018-10-03T00:47:33.502Z,21.97
2018-10-03T00:50:02.314Z,19.47
2018-10-03T00:52:31.184Z,21.03
2018-10-03T00:55:00.033Z,20.17
2018-10-03T00:57:28.877Z,22.13
2018-10-03T00:59:57.715Z,23.53
2018-10-03T01:02:26.544Z,27.73
2018-10-03T01:04:55.374Z,18.70
2018-10-03T01:07:24.231Z,25.35
2018-10-03T01:09:53.177Z,26.47
2018-10-03T01:12:22.024Z,28.65
2018-10-03T01:14:50.838Z,21.93
2018-10-03T01:17:19.698Z,19.07
2018-10-03T01:19:48.573Z,20.57
2018-10-03T01:22:17.439Z,23.30
2018-10-03T01:24:46.291Z,25.82
2018-10-03T01:27:15.139Z,24.73
2018-10-03T01:29:43.998Z,19.00
2018-10-03T01:32:12.814Z,20.87
2018-10-03T01:34:41.678Z,23.10
2018-10-03T01:37:10.506Z,21.47
2018-10-03T01:39:39.359Z,23.90
2018-10-03T01:42:08.198Z,22.43
2018-10-03T01:44:37.458Z,20.27
2018-10-03T01:47:06.366Z,24.47
2018-10-03T01:49:35.214Z,22.03
2018-10-03T01:52:04.112Z,23.20
2018-10-03T01:54:33.206Z,22.00
2018-10-03T01:57:02.086Z,23.03
2018-10-03T01:59:30.971Z,25.23
2018-10-03T02:01:59.804Z,18.57
2018-10-03T02:04:28.638Z,22.83
2018-10-03T02:06:57.606Z,20.20
2018-10-03T02:09:26.432Z,23.87
2018-10-03T02:11:55.300Z,18.97
2018-10-03T02:14:24.152Z,25.53
2018-10-03T02:16:53.033Z,18.30
2018-10-03T02:19:21.888Z,26.03
2018-10-03T02:21:50.782Z,17.37
2018-10-03T02:24:19.993Z,25.80
2018-10-03T02:26:48.853Z,24.27
2018-10-03T02:29:17.733Z,23.27
2018-10-03T02:31:46.612Z,23.50
2018-10-03T02:34:15.454Z,17.23
2018-10-03T02:36:44.333Z,21.17
2018-10-03T02:39:13.207Z,21.87
2018-10-03T02:41:42.050Z,22.60
2018-10-03T02:44:10.907Z,22.47
2018-10-03T02:46:39.762Z,26.53
2018-10-03T02:49:08.618Z,27.53
2018-10-03T02:51:37.465Z,29.52
2018-10-03T02:54:06.378Z,28.00
2018-10-03T02:56:35.231Z,25.67
2018-10-03T02:59:04.088Z,24.33
2018-10-03T03:01:32.951Z,25.67
2018-10-03T03:04:01.754Z,32.83
2018-10-03T03:06:30.600Z,26.57
2018-10-03T03:08:59.525Z,24.37
2018-10-03T03:11:28.369Z,25.33
2018-10-03T03:13:57.220Z,24.10
2018-10-03T03:16:26.084Z,19.07
2018-10-03T03:18:54.957Z,28.73
2018-10-03T03:21:23.798Z,23.13
2018-10-03T03:23:52.636Z,25.63
2018-10-03T03:26:21.512Z,25.43
2018-10-03T03:28:50.322Z,22.60
2018-10-03T03:31:19.162Z,26.50
2018-10-03T03:33:47.998Z,23.60
2018-10-03T03:36:16.893Z,22.87
2018-10-03T03:38:45.752Z,30.00
2018-10-03T03:41:14.605Z,26.17
2018-10-03T03:43:43.458Z,26.13
2018-10-03T03:46:12.306Z,23.37
2018-10-03T03:48:41.166Z,23.93
2018-10-03T03:51:10.023Z,31.20
2018-10-03T03:53:38.873Z,28.23
2018-10-03T03:56:07.730Z,22.60
2018-10-03T03:58:36.552Z,28.57
2018-10-03T04:01:05.413Z,26.83
2018-10-03T04:03:34.281Z,29.37
2018-10-03T04:06:03.146Z,26.00
2018-10-03T04:08:31.994Z,22.87
2018-10-03T04:11:00.843Z,25.75
2018-10-03T04:13:29.716Z,23.90
2018-10-03T04:15:58.577Z,20.70
2018-10-03T04:18:27.417Z,27.90
2018-10-03T04:20:56.288Z,27.83
2018-10-03T04:23:25.112Z,19.60
2018-10-03T04:25:53.973Z,25.23
2018-10-03T04:28:22.994Z,21.93
2018-10-03T04:30:51.880Z,25.63
2018-10-03T04:33:20.760Z,32.33
2018-10-03T04:35:49.655Z,23.77
2018-10-03T04:38:18.555Z,28.00
2018-10-03T04:40:47.421Z,18.40
2018-10-03T04:43:16.288Z,28.37
2018-10-03T04:45:45.128Z,23.80
2018-10-03T04:48:13.980Z,19.50
2018-10-03T04:50:42.823Z,23.20
2018-10-03T04:53:11.675Z,21.00
2018-10-03T04:55:40.547Z,24.27
2018-10-03T04:58:09.380Z,22.73
2018-10-03T05:00:38.262Z,26.37
2018-10-03T05:03:07.503Z,20.10
2018-10-03T05:05:36.391Z,25.60
2018-10-03T05:08:05.260Z,26.87
2018-10-03T05:10:34.135Z,24.27
2018-10-03T05:13:02.987Z,27.73
2018-10-03T05:15:31.840Z,30.57
2018-10-03T05:18:00.697Z,18.17
2018-10-03T05:20:29.589Z,18.73
2018-10-03T05:22:58.502Z,17.43
2018-10-03T05:25:27.351Z,22.30
2018-10-03T05:27:56.201Z,18.40
2018-10-03T05:30:25.029Z,23.70
2018-10-03T05:32:53.918Z,18.37
2018-10-03T05:35:22.775Z,22.77
2018-10-03T05:37:51.631Z,22.27
2018-10-03T05:40:20.475Z,21.50
2018-10-03T05:42:49.393Z,23.63
2018-10-03T05:45:18.255Z,23.62
2018-10-03T05:47:47.128Z,21.57
2018-10-03T05:50:15.977Z,21.67
2018-10-03T05:52:44.828Z,16.17
2018-10-03T05:55:13.721Z,25.10
2018-10-03T05:57:42.602Z,16.73
2018-10-03T06:00:11.491Z,20.87
2018-10-03T06:02:40.391Z,21.37
2018-10-03T06:05:09.247Z,20.63
2018-10-03T06:10:18.614Z,26.17
2018-10-03T06:12:47.486Z,20.23
2018-10-03T06:15:16.351Z,20.13
2018-10-03T06:17:45.207Z,21.07
2018-10-03T06:20:14.078Z,20.20
2018-10-03T06:22:42.936Z,22.75
2018-10-03T06:25:11.795Z,19.83
2018-10-03T06:27:40.758Z,24.13
2018-10-03T06:30:09.567Z,19.63
2018-10-03T06:32:39.208Z,21.17
2018-10-03T06:35:08.102Z,17.73
2018-10-03T06:37:36.928Z,17.17
2018-10-03T06:40:06.605Z,24.20
2018-10-03T06:42:35.464Z,19.17
2018-10-03T06:45:04.443Z,18.10
2018-10-03T06:47:33.268Z,21.73
2018-10-03T06:50:02.129Z,14.60
2018-10-03T06:52:31.016Z,16.93
2018-10-03T06:54:59.857Z,18.20
2018-10-03T06:57:28.696Z,22.62
2018-10-03T06:59:57.558Z,16.27
2018-10-03T07:02:26.431Z,20.03
2018-10-03T07:04:55.256Z,20.60
2018-10-03T07:07:24.132Z,19.27
2018-10-03T07:09:53.075Z,24.35
2018-10-03T07:12:21.924Z,19.87
2018-10-03T07:14:50.783Z,22.93
2018-10-03T07:17:19.608Z,20.10
2018-10-03T07:19:48.483Z,18.23
2018-10-03T07:22:17.314Z,21.93
2018-10-03T07:24:46.204Z,19.57
2018-10-03T07:27:15.083Z,20.07
2018-10-03T07:29:43.906Z,23.13
2018-10-03T07:32:12.750Z,17.67
2018-10-03T07:34:41.590Z,18.27
2018-10-03T07:37:10.431Z,15.50
2018-10-03T07:39:39.280Z,19.87
2018-10-03T07:42:08.119Z,18.00
2018-10-03T07:44:37.156Z,14.17
2018-10-03T07:47:06.002Z,22.77
2018-10-03T07:49:34.849Z,17.77
2018-10-03T07:52:03.697Z,23.20
2018-10-03T07:54:32.578Z,31.30
2018-10-03T07:57:01.441Z,28.97
2018-10-03T07:59:30.311Z,26.43
2018-10-03T08:01:59.162Z,20.17
2018-10-03T08:04:28.003Z,20.37
2018-10-03T08:06:56.876Z,22.70
2018-10-03T08:09:25.716Z,18.00
2018-10-03T08:11:54.580Z,18.03
2018-10-03T08:14:23.426Z,11.50
2018-10-03T08:16:52.304Z,19.48
2018-10-03T08:19:21.256Z,18.13
2018-10-03T08:21:50.098Z,16.00
2018-10-03T08:24:18.963Z,18.30
2018-10-03T08:26:47.859Z,18.80
2018-10-03T08:29:16.702Z,19.80
2018-10-03T08:31:45.543Z,24.17
2018-10-03T08:34:14.395Z,16.80
2018-10-03T08:36:43.300Z,16.73
2018-10-03T08:39:13.771Z,20.97
2018-10-03T08:41:42.970Z,17.37
2018-10-03T08:44:11.905Z,16.23
2018-10-03T08:46:40.746Z,16.13
2018-10-03T08:49:09.670Z,20.12
2018-10-03T08:51:38.549Z,18.40
2018-10-03T08:54:07.161Z,15.90
2018-10-03T08:56:36.096Z,20.00
2018-10-03T08:59:05.024Z,10.83
2018-10-03T09:01:33.899Z,11.80
2018-10-03T09:04:02.741Z,17.60
2018-10-03T09:06:31.616Z,11.83
2018-10-03T09:09:00.488Z,14.33
2018-10-03T09:11:29.395Z,12.60
2018-10-03T09:13:58.199Z,18.77
2018-10-03T09:16:27.052Z,15.37
2018-10-03T09:18:55.892Z,18.62
2018-10-03T09:21:24.732Z,18.50
2018-10-03T09:23:53.559Z,13.60
2018-10-03T09:26:22.393Z,10.77
2018-10-03T09:28:51.272Z,14.30
2018-10-03T09:31:20.112Z,11.30
2018-10-03T09:33:49.005Z,16.53
2018-10-03T09:36:17.812Z,13.40
2018-10-03T09:38:46.679Z,13.80
2018-10-03T09:41:15.507Z,12.87
2018-10-03T09:43:44.429Z,14.40
2018-10-03T09:46:13.248Z,11.33
2018-10-03T09:48:42.120Z,12.63
2018-10-03T09:51:11.232Z,13.83
2018-10-03T09:53:40.095Z,14.80
2018-10-03T09:56:09.027Z,14.95
2018-10-03T09:58:37.869Z,13.70
2018-10-03T10:01:29.011Z,16.50
2018-10-03T10:03:58.965Z,15.13
2018-10-03T10:06:28.174Z,11.83
2018-10-03T10:08:57.013Z,11.73
2018-10-03T10:11:25.988Z,13.85
2018-10-03T10:13:54.756Z,13.32
2018-10-03T10:16:23.550Z,13.15
2018-10-03T10:18:52.445Z,14.28
2018-10-03T10:21:21.270Z,14.63
2018-10-03T10:23:50.147Z,12.33
2018-10-03T10:26:18.967Z,15.50
2018-10-03T10:28:47.861Z,12.73
2018-10-03T10:31:16.705Z,14.75
2018-10-03T10:33:45.586Z,14.68
2018-10-03T10:36:14.416Z,13.68
2018-10-03T10:38:43.267Z,12.55
2018-10-03T10:41:12.199Z,21.80
2018-10-03T10:43:40.954Z,7.85
2018-10-03T10:46:09.968Z,9.23
2018-10-03T10:48:38.794Z,18.02
2018-10-03T10:51:07.660Z,14.68
2018-10-03T10:53:36.554Z,12.80
2018-10-03T10:56:05.472Z,10.45
2018-10-03T10:58:34.330Z,12.93
2018-10-03T11:01:03.179Z,12.63
2018-10-03T11:03:32.129Z,14.43
2018-10-03T11:06:01.015Z,12.28
2018-10-03T11:08:29.826Z,12.37
2018-10-03T11:10:58.699Z,16.12
2018-10-03T11:13:27.550Z,12.40
2018-10-03T11:15:56.398Z,12.95
2018-10-03T11:18:25.263Z,16.40
2018-10-03T11:20:54.125Z,11.12
2018-10-03T11:23:22.976Z,11.55
2018-10-03T11:25:51.796Z,14.55
2018-10-03T11:28:20.627Z,10.20
2018-10-03T11:30:49.730Z,12.70
2018-10-03T11:33:18.569Z,15.45
2018-10-03T11:35:47.429Z,14.15
2018-10-03T11:38:16.413Z,15.38
2018-10-03T11:40:45.725Z,16.25
2018-10-03T11:43:14.567Z,11.78
2018-10-03T11:45:43.424Z,15.53
2018-10-03T11:48:12.274Z,10.53
2018-10-03T11:50:41.189Z,15.63
2018-10-03T11:53:10.211Z,12.75
2018-10-03T11:55:39.047Z,15.32
2018-10-03T11:58:07.876Z,11.40
2018-10-03T12:00:36.722Z,13.15
2018-10-03T12:03:05.772Z,13.72
2018-10-03T12:05:34.434Z,11.90
2018-10-03T12:08:03.408Z,15.15
2018-10-03T12:10:32.265Z,12.23
2018-10-03T12:13:01.080Z,16.45
2018-10-03T12:15:29.983Z,13.15
2018-10-03T12:17:58.837Z,13.80
2018-10-03T12:20:27.686Z,12.53
2018-10-03T12:22:56.595Z,12.68
2018-10-03T12:25:25.429Z,11.88
2018-10-03T12:27:54.316Z,15.38
2018-10-03T12:30:23.189Z,17.90
2018-10-03T12:32:52.069Z,15.85
2018-10-03T12:35:32.988Z,14.60
2018-10-03T12:38:02.436Z,10.50
2018-10-03T12:40:32.052Z,13.35
2018-10-03T12:43:00.926Z,14.38
2018-10-03T12:45:29.836Z,13.75
2018-10-03T12:47:58.938Z,10.28
2018-10-03T12:50:28.178Z,14.98
2018-10-03T12:52:57.091Z,14.87
2018-10-03T12:55:25.946Z,13.60
2018-10-03T12:57:54.803Z,15.23
2018-10-03T13:00:29.899Z,13.78
2018-10-03T13:02:59.156Z,14.13
2018-10-03T13:05:28.036Z,15.53
2018-10-03T13:07:56.958Z,15.48
2018-10-03T13:10:25.906Z,14.35
2018-10-03T13:12:54.829Z,11.95
2018-10-03T13:15:23.670Z,13.68
2018-10-03T13:17:52.533Z,13.05
2018-10-03T13:20:21.396Z,14.33
2018-10-03T13:22:50.283Z,14.35
2018-10-03T13:25:19.176Z,13.53
2018-10-03T13:27:48.074Z,14.30
2018-10-03T13:30:16.995Z,11.55
2018-10-03T13:32:45.847Z,10.72
2018-10-03T13:35:14.727Z,11.40
2018-10-03T13:37:43.591Z,12.88
2018-10-03T13:40:12.411Z,12.55
2018-10-03T13:42:41.547Z,10.78
2018-10-03T13:45:10.425Z,12.55
2018-10-03T13:47:39.302Z,12.65
2018-10-03T13:50:08.151Z,12.78
2018-10-03T13:52:37.001Z,12.25
2018-10-03T13:55:05.848Z,9.88
2018-10-03T13:57:34.824Z,14.23
2018-10-03T14:00:03.671Z,13.90
2018-10-03T14:02:32.548Z,15.85
2018-10-03T14:05:01.367Z,12.53
2018-10-03T14:07:30.219Z,11.40
2018-10-03T14:09:59.073Z,11.53
2018-10-03T14:12:27.978Z,10.70
2018-10-03T14:14:56.846Z,10.80
2018-10-03T14:17:25.688Z,13.97
2018-10-03T14:19:54.578Z,10.57
2018-10-03T14:22:23.412Z,11.03
2018-10-03T14:24:52.351Z,13.90
2018-10-03T14:27:21.198Z,12.03
2018-10-03T14:29:50.081Z,11.50
2018-10-03T14:32:18.934Z,16.57
2018-10-03T14:34:47.805Z,17.53
2018-10-03T14:37:16.712Z,15.03
2018-10-03T14:39:45.600Z,10.60
2018-10-03T14:42:14.420Z,13.50
2018-10-03T14:44:43.310Z,13.20
2018-10-03T14:47:12.172Z,13.30
2018-10-03T14:49:41.005Z,16.53
2018-10-03T14:52:09.946Z,16.37
2018-10-03T14:54:38.724Z,14.37
2018-10-03T14:57:07.549Z,14.67
2018-10-03T14:59:36.444Z,14.37
2018-10-03T15:02:05.313Z,9.63
2018-10-03T15:04:34.196Z,12.70
2018-10-03T15:07:03.185Z,13.83
2018-10-03T15:09:32.053Z,16.07
2018-10-03T15:12:00.890Z,13.83
2018-10-03T15:14:29.762Z,13.47
2018-10-03T15:16:58.661Z,16.07
2018-10-03T15:19:27.523Z,10.98
2018-10-03T15:21:56.403Z,14.23
2018-10-03T15:24:28.321Z,19.77
2018-10-03T15:26:57.159Z,10.30
2018-10-03T15:29:25.988Z,13.00
2018-10-03T15:31:54.862Z,10.47
2018-10-03T15:34:23.921Z,13.43
2018-10-03T15:36:52.763Z,12.60
2018-10-03T15:39:21.677Z,12.03
2018-10-03T15:41:50.612Z,10.40
2018-10-03T15:44:19.497Z,11.87
2018-10-03T15:46:48.351Z,11.27
2018-10-03T15:49:17.202Z,11.23
2018-10-03T15:51:46.116Z,7.97
2018-10-03T15:54:14.974Z,13.20
2018-10-03T15:56:43.814Z,9.97
2018-10-03T15:59:12.680Z,12.33
2018-10-03T16:01:41.583Z,10.70
2018-10-03T16:04:10.987Z,16.47
2018-10-03T16:06:39.940Z,14.77
2018-10-03T16:09:09.694Z,14.27
2018-10-03T16:11:38.907Z,14.35
2018-10-03T16:14:07.797Z,12.57
2018-10-03T16:16:36.714Z,14.27
2018-10-03T16:19:05.594Z,14.20
2018-10-03T16:21:34.445Z,16.73
2018-10-03T16:24:03.316Z,9.50
2018-10-03T16:26:32.219Z,10.43
2018-10-03T16:29:01.026Z,17.67
2018-10-03T16:31:29.884Z,12.13
2018-10-03T16:33:58.775Z,10.57
2018-10-03T16:36:27.623Z,12.93
2018-10-03T16:38:56.571Z,15.07
2018-10-03T16:41:25.375Z,13.30
2018-10-03T16:43:54.239Z,15.23
2018-10-03T16:46:23.122Z,15.03
2018-10-03T16:48:52.016Z,12.75
2018-10-03T16:51:20.950Z,17.52
2018-10-03T16:53:49.835Z,9.20
2018-10-03T16:56:18.714Z,11.97
2018-10-03T16:58:47.578Z,14.33
2018-10-03T17:01:16.435Z,11.03
2018-10-03T17:03:45.309Z,12.55
2018-10-03T17:06:14.165Z,13.60
2018-10-03T17:08:43.050Z,11.83
2018-10-03T17:11:11.966Z,14.00
2018-10-03T17:14:21.629Z,13.23
2018-10-03T17:16:50.849Z,14.60
2018-10-03T17:19:19.729Z,14.67
2018-10-03T17:21:49.461Z,17.07
2018-10-03T17:24:18.581Z,15.53
2018-10-03T17:26:47.471Z,14.43
2018-10-03T17:29:16.856Z,14.97
2018-10-03T17:31:46.263Z,13.63
2018-10-03T17:34:15.957Z,11.03
2018-10-03T17:36:46.675Z,13.23
2018-10-03T17:39:16.081Z,12.23
2018-10-03T17:41:45.349Z,14.17
2018-10-03T17:44:15.229Z,12.60
2018-10-03T17:46:44.456Z,10.37
2018-10-03T17:49:13.324Z,13.90
2018-10-03T17:51:42.221Z,15.77
2018-10-03T17:54:11.216Z,15.13
2018-10-03T17:56:40.080Z,11.37
2018-10-03T17:59:09.551Z,18.43
2018-10-03T18:01:57.907Z,13.32
2018-10-03T18:04:26.852Z,13.90
2018-10-03T18:06:55.659Z,13.27
2018-10-03T18:09:24.537Z,12.50
2018-10-03T18:11:53.393Z,19.33
2018-10-03T18:14:22.318Z,16.60
2018-10-03T18:16:51.152Z,18.12
2018-10-03T18:19:20.014Z,18.00
2018-10-03T18:21:48.879Z,14.93
2018-10-03T18:24:17.724Z,13.77
2018-10-03T18:26:46.571Z,17.55
2018-10-03T18:29:15.403Z,12.37
2018-10-03T18:31:44.262Z,18.53
2018-10-03T18:34:13.097Z,12.53
2018-10-03T18:36:41.937Z,14.00
2018-10-03T18:39:11.162Z,14.93
2018-10-03T18:41:40.337Z,11.13
2018-10-03T18:44:09.243Z,12.30
2018-10-03T18:46:38.099Z,15.40
2018-10-03T18:49:06.956Z,19.03
2018-10-03T18:51:35.797Z,17.13
2018-10-03T18:54:04.665Z,18.20
2018-10-03T18:56:33.522Z,15.90
2018-10-03T18:59:02.370Z,14.50
2018-10-03T19:01:31.233Z,13.33
2018-10-03T19:04:00.098Z,13.43
2018-10-03T19:06:28.930Z,17.50
2018-10-03T19:08:57.802Z,10.93
2018-10-03T19:11:26.641Z,14.17
2018-10-03T19:13:55.483Z,16.43
2018-10-03T19:16:24.369Z,13.80
2018-10-03T19:18:53.178Z,13.77
2018-10-03T19:21:22.031Z,19.53
2018-10-03T19:23:50.863Z,15.97
2018-10-03T19:26:19.782Z,17.77
2018-10-03T19:28:48.544Z,15.57
2018-10-03T19:31:17.436Z,20.08
2018-10-03T19:33:46.340Z,19.43
2018-10-03T19:36:15.208Z,13.87
2018-10-03T19:38:44.087Z,15.27
2018-10-03T19:41:12.939Z,15.33
2018-10-03T19:43:41.804Z,18.73
2018-10-03T19:46:10.666Z,16.47
2018-10-03T19:48:39.519Z,19.73
2018-10-03T19:51:09.383Z,21.53
2018-10-03T19:53:38.600Z,16.30
2018-10-03T19:56:07.464Z,17.50
2018-10-03T19:58:36.337Z,23.63
2018-10-03T20:01:05.230Z,15.37
2018-10-03T20:03:34.248Z,14.20
2018-10-03T20:06:03.032Z,13.07
2018-10-03T20:08:31.868Z,16.77
2018-10-03T20:11:00.712Z,15.97
2018-10-03T20:13:29.559Z,19.67
2018-10-03T20:15:58.421Z,19.07
2018-10-03T20:18:27.274Z,24.72
2018-10-03T20:20:56.195Z,16.23
2018-10-03T20:23:25.018Z,10.47
2018-10-03T20:25:53.854Z,17.53
2018-10-03T20:28:22.756Z,21.37
2018-10-03T20:30:51.814Z,19.37
2018-10-03T20:33:20.598Z,15.60
2018-10-03T20:35:49.472Z,19.63
2018-10-03T20:38:18.335Z,12.93
2018-10-03T20:40:47.577Z,16.97
2018-10-03T20:43:16.416Z,16.63
2018-10-03T20:45:45.289Z,16.77
2018-10-03T20:48:14.190Z,18.33
2018-10-03T20:50:43.025Z,15.60
2018-10-03T20:53:11.896Z,19.83
2018-10-03T20:55:40.734Z,21.43
2018-10-03T20:58:09.581Z,15.20
2018-10-03T21:00:38.455Z,24.63
2018-10-03T21:03:07.318Z,20.40
2018-10-03T21:05:36.168Z,17.23
2018-10-03T21:08:05.042Z,18.93
2018-10-03T21:10:33.875Z,20.93
2018-10-03T21:13:02.746Z,14.23
2018-10-03T21:15:31.605Z,16.73
2018-10-03T21:18:00.461Z,13.53
2018-10-03T21:20:29.385Z,17.97
2018-10-03T21:22:58.240Z,14.93
2018-10-03T21:25:27.108Z,23.97
2018-10-03T21:27:55.973Z,18.77
2018-10-03T21:30:24.822Z,18.37
2018-10-03T21:32:53.673Z,20.10
2018-10-03T21:35:22.509Z,14.30
2018-10-03T21:37:51.395Z,17.42
2018-10-03T21:40:20.235Z,18.77
2018-10-03T21:42:49.098Z,17.87
2018-10-03T21:45:17.932Z,20.30
2018-10-03T21:47:46.785Z,15.23
2018-10-03T21:50:15.632Z,15.07
2018-10-03T21:52:44.482Z,15.13
2018-10-03T21:55:13.317Z,14.10
2018-10-03T21:57:42.175Z,15.93
2018-10-03T22:00:11.039Z,15.03
2018-10-03T22:02:39.867Z,13.57
2018-10-03T22:05:09.719Z,11.47
2018-10-03T22:07:39.440Z,13.03
2018-10-03T22:10:08.437Z,17.60
2018-10-03T22:12:37.364Z,20.43
2018-10-03T22:15:06.199Z,15.93
2018-10-03T22:17:41.528Z,18.07
2018-10-03T22:20:10.394Z,12.57
2018-10-03T22:22:39.248Z,17.73
2018-10-03T22:25:08.080Z,15.63
2018-10-03T22:27:36.921Z,15.00
2018-10-03T22:30:05.825Z,20.93
2018-10-03T22:32:34.656Z,16.17
2018-10-03T22:35:03.531Z,18.67
2018-10-03T22:37:32.388Z,15.17
2018-10-03T22:40:01.315Z,17.00
2018-10-03T22:42:30.176Z,14.03
2018-10-03T22:44:59.036Z,15.73
2018-10-03T22:47:27.916Z,17.60
2018-10-03T22:49:56.788Z,15.43
2018-10-03T22:52:25.621Z,13.83
2018-10-03T22:54:54.482Z,18.63
2018-10-03T22:57:23.400Z,15.50
2018-10-03T22:59:52.312Z,16.27
2018-10-03T23:02:21.183Z,12.67
2018-10-03T23:04:50.035Z,16.70
2018-10-03T23:07:18.896Z,18.10
2018-10-03T23:09:47.801Z,13.73
2018-10-03T23:12:16.664Z,16.00
2018-10-03T23:14:45.542Z,20.83
2018-10-03T23:17:14.374Z,17.63
2018-10-03T23:19:43.260Z,14.93
2018-10-03T23:22:12.136Z,12.37
2018-10-03T23:24:41.003Z,18.70
2018-10-03T23:27:09.833Z,19.60
2018-10-03T23:29:38.687Z,18.47
2018-10-03T23:32:07.563Z,13.73
2018-10-03T23:34:36.389Z,17.97
2018-10-03T23:37:05.267Z,16.33
2018-10-03T23:39:34.121Z,18.70
2018-10-03T23:42:03.034Z,18.23
2018-10-03T23:44:31.849Z,21.53
2018-10-03T23:47:00.683Z,22.03
2018-10-03T23:49:29.580Z,16.83
2018-10-03T23:51:58.449Z,13.60
2018-10-03T23:54:27.274Z,20.40
2018-10-03T23:56:56.107Z,17.83
2018-10-03T23:59:25.058Z,18.03
